Search for airport 
image banner adimage banner adimage banner ad
image banner ad

PA16 - Shadyside Health Education&Research Corp

Located in Pittsburgh, United States

ICAO - PA16, IATA -

Data provided by Airmate  

General information

Coordinates: N40°27'15" W79°56'23"
Elevation is 1037 feet MSL.
Magnetic variation is -08° East
View others Airports in Pennsylvania

Operational data

Special qualification required
Current time UTC:
Current local time:
Weather at : KAGC - Allegheny County ( 11 km )
METAR: KAGC 182253Z 05003KT 10SM CLR 25/05 A3027 RMK AO2 SLP252 T02500050
TAF: KAGC 181726Z 1818/1918 10004KT P6SM SCT060 SCT250 FM182300 VRB03KT P6SM SCT250 FM191500 17004KT P6SM SCT040
View NOTAMs / SUP AIP / TFR affecting this airport [VIEW]
Communications frequencies: [VIEW]

Runways:

Airport contact information

Address: Pittsburgh United States

Satellite view of PA16